createdAt,value
2019-04-25T00:00:39.331Z,99552
2019-04-25T00:01:39.312Z,99551
2019-04-25T00:02:39.538Z,99551
2019-04-25T00:03:39.591Z,99550
2019-04-25T00:04:39.768Z,99552
2019-04-25T00:05:39.816Z,99546
2019-04-25T00:06:39.887Z,99545
2019-04-25T00:07:41.686Z,99546
2019-04-25T00:08:40.073Z,99549
2019-04-25T00:09:41.856Z,99551
2019-04-25T00:10:41.831Z,99551
2019-04-25T00:11:40.605Z,99553
2019-04-25T00:12:42.215Z,99549
2019-04-25T00:13:41.844Z,99552
2019-04-25T00:14:41.634Z,99552
2019-04-25T00:15:41.888Z,99549
2019-04-25T00:16:43.049Z,99552
2019-04-25T00:17:42.240Z,99554
2019-04-25T00:18:42.152Z,99556
2019-04-25T00:19:42.432Z,99561
2019-04-25T00:20:42.592Z,99564
2019-04-25T00:21:42.472Z,99561
2019-04-25T00:22:42.811Z,99567
2019-04-25T00:23:42.842Z,99564
2019-04-25T00:24:43.216Z,99569
2019-04-25T00:25:45.783Z,99564
2019-04-25T00:26:44.304Z,99552
2019-04-25T00:27:44.765Z,99547
2019-04-25T00:28:44.627Z,99550
2019-04-25T00:29:44.858Z,99541
2019-04-25T00:30:43.758Z,99544
2019-04-25T00:31:45.060Z,99547
2019-04-25T00:32:44.403Z,99542
2019-04-25T00:33:45.173Z,99537
2019-04-25T00:34:44.715Z,99538
2019-04-25T00:35:44.815Z,99532
2019-04-25T00:36:44.592Z,99533
2019-04-25T00:37:45.343Z,99534
2019-04-25T00:38:46.887Z,99531
2019-04-25T00:39:45.292Z,99528
2019-04-25T00:40:45.128Z,99530
2019-04-25T00:41:45.461Z,99523
2019-04-25T00:42:45.377Z,99526
2019-04-25T00:43:44.498Z,99526
2019-04-25T00:44:45.002Z,99524
2019-04-25T00:45:44.768Z,99523
2019-04-25T00:46:47.633Z,99519
2019-04-25T00:47:44.926Z,99513
2019-04-25T00:48:44.849Z,99518
2019-04-25T00:49:45.132Z,99514
2019-04-25T00:50:45.115Z,99515
2019-04-25T00:51:45.331Z,99513
2019-04-25T00:52:45.425Z,99516
2019-04-25T00:53:45.254Z,99510
2019-04-25T00:54:45.478Z,99510
2019-04-25T00:55:45.629Z,99508
2019-04-25T00:56:46.902Z,99506
2019-04-25T00:57:45.892Z,99501
2019-04-25T00:58:45.914Z,99502
2019-04-25T00:59:45.996Z,99501
2019-04-25T01:00:46.103Z,99500
2019-04-25T01:01:46.808Z,99498
2019-04-25T01:02:46.483Z,99498
2019-04-25T01:03:46.336Z,99501
2019-04-25T01:04:46.351Z,99498
2019-04-25T01:05:46.625Z,99503
2019-04-25T01:06:46.705Z,99497
2019-04-25T01:07:46.886Z,99499
2019-04-25T01:08:46.861Z,99499
2019-04-25T01:09:47.020Z,99504
2019-04-25T01:10:47.065Z,99506
2019-04-25T01:11:47.157Z,99505
2019-04-25T01:12:47.428Z,99502
2019-04-25T01:13:47.474Z,99501
2019-04-25T01:14:47.579Z,99502
2019-04-25T01:15:47.710Z,99501
2019-04-25T01:16:47.771Z,99506
2019-04-25T01:17:47.983Z,99509
2019-04-25T01:18:47.961Z,99512
2019-04-25T01:19:48.111Z,99509
2019-04-25T01:20:48.258Z,99512
2019-04-25T01:21:48.300Z,99519
2019-04-25T01:22:48.498Z,99513
2019-04-25T01:23:48.573Z,99519
2019-04-25T01:24:48.528Z,99514
2019-04-25T01:25:48.694Z,99513
2019-04-25T01:26:48.774Z,99512
2019-04-25T01:27:48.953Z,99520
2019-04-25T01:28:48.900Z,99515
2019-04-25T01:29:49.016Z,99514
2019-04-25T01:30:49.147Z,99514
2019-04-25T01:31:49.245Z,99514
2019-04-25T01:32:49.586Z,99518
2019-04-25T01:33:49.531Z,99526
2019-04-25T01:34:49.648Z,99528
2019-04-25T01:35:49.726Z,99532
2019-04-25T01:36:49.850Z,99531
2019-04-25T01:37:50.175Z,99537
2019-04-25T01:38:50.057Z,99539
2019-04-25T01:39:50.214Z,99537
2019-04-25T01:40:50.323Z,99534
2019-04-25T01:41:50.379Z,99528
2019-04-25T01:42:50.616Z,99530
2019-04-25T01:43:53.012Z,99531
2019-04-25T01:44:50.639Z,99531
2019-04-25T01:45:50.861Z,99534
2019-04-25T01:46:50.968Z,99533
2019-04-25T01:47:51.187Z,99535
2019-04-25T01:48:51.290Z,99534
2019-04-25T01:49:51.440Z,99537
2019-04-25T01:50:51.481Z,99542
2019-04-25T01:51:51.565Z,99550
2019-04-25T01:52:51.652Z,99552
2019-04-25T01:53:51.772Z,99548
2019-04-25T01:54:51.835Z,99549
2019-04-25T01:56:52.251Z,99557
2019-04-25T01:57:53.840Z,99561
2019-04-25T01:58:53.813Z,99556
2019-04-25T01:59:54.024Z,99554
2019-04-25T02:00:54.972Z,99558
2019-04-25T02:01:54.539Z,99551
2019-04-25T02:02:54.830Z,99545
2019-04-25T02:03:54.607Z,99554
2019-04-25T02:04:55.303Z,99546
2019-04-25T02:05:55.163Z,99550
2019-04-25T02:06:54.779Z,99557
2019-04-25T02:07:54.959Z,99558
2019-04-25T02:08:55.203Z,99555
2019-04-25T02:09:55.065Z,99553
2019-04-25T02:10:54.152Z,99559
2019-04-25T02:11:54.667Z,99554
2019-04-25T02:12:55.476Z,99548
2019-04-25T02:13:54.881Z,99548
2019-04-25T02:14:55.934Z,99553
2019-04-25T02:15:55.061Z,99543
2019-04-25T02:16:56.163Z,99545
2019-04-25T02:17:56.843Z,99543
2019-04-25T02:18:55.407Z,99549
2019-04-25T02:19:55.711Z,99553
2019-04-25T02:20:57.843Z,99553
2019-04-25T02:21:55.577Z,99553
2019-04-25T02:22:55.520Z,99553
2019-04-25T02:23:55.714Z,99555
2019-04-25T02:24:56.126Z,99556
2019-04-25T02:26:08.880Z,99555
2019-04-25T02:26:56.290Z,99558
2019-04-25T02:27:56.174Z,99563
2019-04-25T02:28:56.340Z,99557
2019-04-25T02:29:56.309Z,99553
2019-04-25T02:30:58.717Z,99556
2019-04-25T02:31:58.958Z,99561
2019-04-25T02:32:58.921Z,99560
2019-04-25T02:33:57.701Z,99563
2019-04-25T02:34:59.565Z,99561
2019-04-25T02:35:59.237Z,99566
2019-04-25T02:36:59.133Z,99563
2019-04-25T02:37:59.160Z,99559
2019-04-25T02:38:58.413Z,99558
2019-04-25T02:39:58.736Z,99556
2019-04-25T02:40:59.360Z,99558
2019-04-25T02:41:59.122Z,99556
2019-04-25T02:42:58.859Z,99564
2019-04-25T02:44:01.081Z,99563
2019-04-25T02:44:59.162Z,99562
2019-04-25T02:45:58.378Z,99563
2019-04-25T02:46:59.024Z,99558
2019-04-25T02:47:58.454Z,99557
2019-04-25T02:48:59.452Z,99559
2019-04-25T02:49:58.895Z,99559
2019-04-25T02:50:58.413Z,99557
2019-04-25T02:51:59.458Z,99559
2019-04-25T02:52:58.596Z,99554
2019-04-25T02:53:58.385Z,99561
2019-04-25T02:54:58.993Z,99560
2019-04-25T02:55:58.565Z,99564
2019-04-25T02:56:58.683Z,99568
2019-04-25T02:57:59.293Z,99566
2019-04-25T02:58:59.173Z,99566
2019-04-25T02:59:59.073Z,99565
2019-04-25T03:01:07.873Z,99561
2019-04-25T03:01:59.455Z,99566
2019-04-25T03:02:59.522Z,99559
2019-04-25T03:03:59.730Z,99562
2019-04-25T03:04:59.888Z,99564
2019-04-25T03:06:00.134Z,99565
2019-04-25T03:07:00.509Z,99563
2019-04-25T03:08:00.231Z,99571
2019-04-25T03:09:00.557Z,99566
2019-04-25T03:10:00.349Z,99565
2019-04-25T03:11:00.337Z,99573
2019-04-25T03:12:00.496Z,99566
2019-04-25T03:13:00.659Z,99563
2019-04-25T03:14:00.818Z,99562
2019-04-25T03:15:00.764Z,99565
2019-04-25T03:16:01.059Z,99564
2019-04-25T03:17:00.905Z,99568
2019-04-25T03:18:01.097Z,99574
2019-04-25T03:19:01.021Z,99569
2019-04-25T03:20:01.897Z,99569
2019-04-25T03:21:01.552Z,99571
2019-04-25T03:22:01.871Z,99571
2019-04-25T03:23:01.584Z,99564
2019-04-25T03:24:01.781Z,99570
2019-04-25T03:25:02.498Z,99567
2019-04-25T03:26:03.695Z,99570
2019-04-25T03:27:02.073Z,99569
2019-04-25T03:28:03.836Z,99571
2019-04-25T03:29:03.793Z,99567
2019-04-25T03:30:02.513Z,99572
2019-04-25T03:31:07.278Z,99574
2019-04-25T03:32:07.165Z,99572
2019-04-25T03:33:08.001Z,99569
2019-04-25T03:34:07.757Z,99571
2019-04-25T03:35:04.850Z,99570
2019-04-25T03:36:05.451Z,99568
2019-04-25T03:37:05.553Z,99569
2019-04-25T03:38:04.499Z,99568
2019-04-25T03:39:04.226Z,99562
2019-04-25T03:40:05.551Z,99563
2019-04-25T03:41:04.754Z,99569
2019-04-25T03:42:05.358Z,99570
2019-04-25T03:43:05.017Z,99570
2019-04-25T03:44:05.613Z,99574
2019-04-25T03:45:04.987Z,99575
2019-04-25T03:46:06.131Z,99577
2019-04-25T03:47:06.381Z,99579
2019-04-25T03:48:05.561Z,99578
2019-04-25T03:49:05.271Z,99575
2019-04-25T03:50:06.059Z,99574
2019-04-25T03:51:05.703Z,99579
2019-04-25T03:52:05.523Z,99580
2019-04-25T03:53:05.678Z,99577
2019-04-25T03:54:07.394Z,99579
2019-04-25T03:55:06.478Z,99577
2019-04-25T03:56:06.353Z,99581
2019-04-25T03:57:06.607Z,99578
2019-04-25T03:58:08.563Z,99578
2019-04-25T03:59:06.313Z,99579
2019-04-25T04:00:06.492Z,99582
2019-04-25T04:01:07.231Z,99583
2019-04-25T04:02:06.979Z,99586
2019-04-25T04:03:06.926Z,99583
2019-04-25T04:04:07.030Z,99584
2019-04-25T04:05:07.227Z,99586
2019-04-25T04:06:07.520Z,99582
2019-04-25T04:07:08.755Z,99582
2019-04-25T04:08:06.797Z,99580
2019-04-25T04:09:06.983Z,99581
2019-04-25T04:10:07.011Z,99582
2019-04-25T04:11:07.671Z,99584
2019-04-25T04:12:07.156Z,99579
2019-04-25T04:13:07.436Z,99580
2019-04-25T04:14:07.384Z,99582
2019-04-25T04:15:07.442Z,99585
2019-04-25T04:16:07.554Z,99577
2019-04-25T04:17:07.938Z,99585
2019-04-25T04:18:07.752Z,99584
2019-04-25T04:19:07.940Z,99583
2019-04-25T04:20:08.068Z,99583
2019-04-25T04:21:08.177Z,99580
2019-04-25T04:22:08.286Z,99579
2019-04-25T04:23:08.373Z,99577
2019-04-25T04:24:08.796Z,99576
2019-04-25T04:25:08.702Z,99577
2019-04-25T04:26:08.704Z,99579
2019-04-25T04:27:09.480Z,99580
2019-04-25T04:28:08.948Z,99578
2019-04-25T04:29:09.249Z,99583
2019-04-25T04:30:09.212Z,99585
2019-04-25T04:31:09.352Z,99583
2019-04-25T04:32:09.581Z,99583
2019-04-25T04:33:21.389Z,99590
2019-04-25T04:34:09.787Z,99591
2019-04-25T04:35:09.896Z,99590
2019-04-25T04:36:10.079Z,99590
2019-04-25T04:37:10.272Z,99587
2019-04-25T04:38:10.830Z,99590
2019-04-25T04:39:11.121Z,99591
2019-04-25T04:40:10.725Z,99591
2019-04-25T04:41:10.703Z,99589
2019-04-25T04:42:10.848Z,99582
2019-04-25T04:43:10.881Z,99583
2019-04-25T04:44:11.003Z,99581
2019-04-25T04:45:11.130Z,99588
2019-04-25T04:46:11.266Z,99580
2019-04-25T04:47:11.189Z,99582
2019-04-25T04:48:11.498Z,99579
2019-04-25T04:49:11.476Z,99582
2019-04-25T04:50:11.586Z,99586
2019-04-25T04:51:11.729Z,99587
2019-04-25T04:52:11.772Z,99584
2019-04-25T04:53:11.963Z,99589
2019-04-25T04:54:13.475Z,99584
2019-04-25T04:55:14.472Z,99587
2019-04-25T04:56:14.133Z,99586
2019-04-25T04:58:14.941Z,99595
2019-04-25T04:59:14.570Z,99600
2019-04-25T05:00:14.520Z,99596
2019-04-25T05:01:14.726Z,99600
2019-04-25T05:02:14.971Z,99603
2019-04-25T05:03:14.837Z,99595
2019-04-25T05:04:14.830Z,99607
2019-04-25T05:05:14.758Z,99596
2019-04-25T05:06:15.269Z,99597
2019-04-25T05:07:15.248Z,99602
2019-04-25T05:08:14.900Z,99598
2019-04-25T05:09:15.480Z,99598
2019-04-25T05:10:16.350Z,99598
2019-04-25T05:11:15.761Z,99603
2019-04-25T05:12:15.189Z,99606
2019-04-25T05:13:15.627Z,99607
2019-04-25T05:14:15.233Z,99604
2019-04-25T05:15:16.835Z,99598
2019-04-25T05:16:15.316Z,99603
2019-04-25T05:17:15.426Z,99603
2019-04-25T05:18:17.091Z,99610
2019-04-25T05:19:15.794Z,99609
2019-04-25T05:20:16.307Z,99604
2019-04-25T05:21:16.041Z,99612
2019-04-25T05:22:15.924Z,99618
2019-04-25T05:23:16.192Z,99623
2019-04-25T05:24:16.356Z,99611
2019-04-25T05:25:16.624Z,99611
2019-04-25T05:26:16.267Z,99619
2019-04-25T05:27:24.844Z,99606
2019-04-25T05:28:17.197Z,99610
2019-04-25T05:29:20.012Z,99607
2019-04-25T05:30:16.938Z,99622
2019-04-25T05:31:17.109Z,99618
2019-04-25T05:32:17.218Z,99620
2019-04-25T05:33:18.882Z,99609
2019-04-25T05:34:17.110Z,99613
2019-04-25T05:35:16.911Z,99609
2019-04-25T05:36:17.505Z,99615
2019-04-25T05:37:16.690Z,99612
2019-04-25T05:38:16.787Z,99611
2019-04-25T05:39:18.003Z,99607
2019-04-25T05:40:17.365Z,99617
2019-04-25T05:41:17.352Z,99630
2019-04-25T05:42:17.493Z,99614
2019-04-25T05:43:17.559Z,99617
2019-04-25T05:44:17.918Z,99615
2019-04-25T05:45:18.866Z,99604
2019-04-25T05:46:18.163Z,99612
2019-04-25T05:47:20.345Z,99603
2019-04-25T05:48:18.153Z,99598
2019-04-25T05:49:18.396Z,99598
2019-04-25T05:50:19.010Z,99601
2019-04-25T05:51:18.630Z,99615
2019-04-25T05:52:19.011Z,99624
2019-04-25T05:53:18.961Z,99618
2019-04-25T05:54:19.703Z,99619
2019-04-25T05:55:20.183Z,99609
2019-04-25T05:56:19.271Z,99622
2019-04-25T05:57:20.815Z,99613
2019-04-25T05:58:19.587Z,99611
2019-04-25T05:59:20.930Z,99603
2019-04-25T06:00:19.737Z,99608
2019-04-25T06:01:19.867Z,99605
2019-04-25T06:02:20.673Z,99606
2019-04-25T06:03:20.001Z,99605
2019-04-25T06:04:20.183Z,99612
2019-04-25T06:05:20.254Z,99607
2019-04-25T06:06:20.219Z,99612
2019-04-25T06:07:20.626Z,99616
2019-04-25T06:08:20.524Z,99607
2019-04-25T06:09:20.929Z,99613
2019-04-25T06:10:20.669Z,99628
2019-04-25T06:11:20.703Z,99627
2019-04-25T06:12:20.830Z,99633
2019-04-25T06:13:20.861Z,99635
2019-04-25T06:14:20.929Z,99641
2019-04-25T06:15:21.005Z,99635
2019-04-25T06:16:21.203Z,99638
2019-04-25T06:17:23.613Z,99647
2019-04-25T06:18:23.861Z,99645
2019-04-25T06:19:24.182Z,99647
2019-04-25T06:20:23.517Z,99650
2019-04-25T06:21:23.534Z,99655
2019-04-25T06:22:23.319Z,99651
2019-04-25T06:23:21.743Z,99649
2019-04-25T06:24:23.512Z,99658
2019-04-25T06:25:24.459Z,99651
2019-04-25T06:27:24.250Z,99642
2019-04-25T06:28:23.916Z,99653
2019-04-25T06:29:23.898Z,99650
2019-04-25T06:30:24.850Z,99648
2019-04-25T06:31:23.778Z,99649
2019-04-25T06:32:24.893Z,99653
2019-04-25T06:33:24.858Z,99652
2019-04-25T06:34:22.417Z,99661
2019-04-25T06:35:25.093Z,99664
2019-04-25T06:36:24.510Z,99664
2019-04-25T06:37:24.868Z,99662
2019-04-25T06:38:25.988Z,99664
2019-04-25T06:39:24.325Z,99673
2019-04-25T06:40:24.123Z,99674
2019-04-25T06:41:26.130Z,99678
2019-04-25T06:42:24.755Z,99675
2019-04-25T06:43:25.752Z,99680
2019-04-25T06:44:24.318Z,99679
2019-04-25T06:45:25.489Z,99682
2019-04-25T06:46:24.732Z,99679
2019-04-25T06:47:24.763Z,99682
2019-04-25T06:48:24.939Z,99671
2019-04-25T06:49:26.772Z,99661
2019-04-25T06:50:24.817Z,99664
2019-04-25T06:51:25.938Z,99661
2019-04-25T06:52:27.987Z,99662
2019-04-25T06:53:26.005Z,99656
2019-04-25T06:54:25.645Z,99661
2019-04-25T06:55:26.235Z,99671
2019-04-25T06:56:25.208Z,99668
2019-04-25T06:57:26.920Z,99669
2019-04-25T06:58:26.002Z,99669
2019-04-25T06:59:26.416Z,99667
2019-04-25T07:00:27.701Z,99674
2019-04-25T07:01:26.480Z,99670
2019-04-25T07:02:26.469Z,99667
2019-04-25T07:03:26.231Z,99670
2019-04-25T07:04:26.840Z,99670
2019-04-25T07:06:26.312Z,99664
2019-04-25T07:07:26.859Z,99662
2019-04-25T07:08:26.879Z,99663
2019-04-25T07:09:28.381Z,99668
2019-04-25T07:10:26.439Z,99670
2019-04-25T07:11:27.416Z,99673
2019-04-25T07:12:29.234Z,99678
2019-04-25T07:13:27.453Z,99677
2019-04-25T07:14:27.007Z,99679
2019-04-25T07:15:26.906Z,99676
2019-04-25T07:16:26.400Z,99680
2019-04-25T07:17:29.672Z,99675
2019-04-25T07:18:30.468Z,99684
2019-04-25T07:19:27.052Z,99691
2019-04-25T07:20:27.345Z,99685
2019-04-25T07:21:27.252Z,99691
2019-04-25T07:22:27.886Z,99695
2019-04-25T07:23:33.351Z,99693
2019-04-25T07:24:28.004Z,99701
2019-04-25T07:25:27.580Z,99699
2019-04-25T07:26:27.206Z,99702
2019-04-25T07:27:27.525Z,99700
2019-04-25T07:28:30.104Z,99695
2019-04-25T07:29:27.555Z,99696
2019-04-25T07:30:35.400Z,99700
2019-04-25T07:31:29.938Z,99705
2019-04-25T07:32:31.686Z,99710
2019-04-25T07:33:28.410Z,99697
2019-04-25T07:34:28.080Z,99699
2019-04-25T07:35:28.154Z,99709
2019-04-25T07:36:30.085Z,99701
2019-04-25T07:37:28.914Z,99708
2019-04-25T07:38:28.158Z,99706
2019-04-25T07:39:28.699Z,99716
2019-04-25T07:40:28.804Z,99718
2019-04-25T07:41:28.468Z,99716
2019-04-25T07:42:28.890Z,99717
2019-04-25T07:43:28.736Z,99720
2019-04-25T07:44:40.501Z,99721
2019-04-25T07:45:29.955Z,99708
2019-04-25T07:46:28.926Z,99721
2019-04-25T07:47:30.389Z,99718
2019-04-25T07:48:29.104Z,99718
2019-04-25T07:49:29.570Z,99713
2019-04-25T07:50:29.326Z,99717
2019-04-25T07:51:29.519Z,99719
2019-04-25T07:52:29.964Z,99717
2019-04-25T07:53:30.542Z,99718
2019-04-25T07:54:29.811Z,99715
2019-04-25T07:55:30.196Z,99712
2019-04-25T07:56:30.470Z,99726
2019-04-25T07:57:30.393Z,99723
2019-04-25T07:59:30.125Z,99714
2019-04-25T08:00:30.377Z,99714
2019-04-25T08:01:30.238Z,99717
2019-04-25T08:02:31.094Z,99720
2019-04-25T08:03:31.390Z,99708
2019-04-25T08:04:30.870Z,99708
2019-04-25T08:05:30.517Z,99711
2019-04-25T08:06:30.396Z,99699
2019-04-25T08:07:30.684Z,99702
2019-04-25T08:08:30.893Z,99705
2019-04-25T08:09:30.552Z,99706
2019-04-25T08:10:30.980Z,99707
2019-04-25T08:11:31.056Z,99707
2019-04-25T08:12:31.543Z,99710
2019-04-25T08:13:31.213Z,99710
2019-04-25T08:14:31.157Z,99708
2019-04-25T08:15:30.910Z,99716
2019-04-25T08:16:33.353Z,99706
2019-04-25T08:17:31.717Z,99706
2019-04-25T08:18:31.834Z,99714
2019-04-25T08:19:33.440Z,99713
2019-04-25T08:20:31.559Z,99703
2019-04-25T08:21:34.352Z,99713
2019-04-25T08:22:38.482Z,99712
2019-04-25T08:23:33.696Z,99719
2019-04-25T08:24:31.907Z,99718
2019-04-25T08:25:33.376Z,99721
2019-04-25T08:26:33.829Z,99718
2019-04-25T08:27:34.643Z,99716
2019-04-25T08:28:34.370Z,99731
2019-04-25T08:29:37.906Z,99726
2019-04-25T08:30:34.140Z,99720
2019-04-25T08:31:35.183Z,99726
2019-04-25T08:32:35.448Z,99733
2019-04-25T08:33:34.499Z,99728
2019-04-25T08:34:34.761Z,99732
2019-04-25T08:35:34.142Z,99736
2019-04-25T08:36:36.983Z,99735
2019-04-25T08:37:34.383Z,99740
2019-04-25T08:38:35.032Z,99751
2019-04-25T08:39:33.978Z,99743
2019-04-25T08:40:36.185Z,99758
2019-04-25T08:41:34.755Z,99739
2019-04-25T08:42:35.677Z,99747
2019-04-25T08:43:34.759Z,99741
2019-04-25T08:44:35.927Z,99734
2019-04-25T08:45:35.628Z,99739
2019-04-25T08:46:37.101Z,99736
2019-04-25T08:47:35.065Z,99736
2019-04-25T08:48:34.810Z,99740
2019-04-25T08:49:35.210Z,99727
2019-04-25T08:50:37.471Z,99719
2019-04-25T08:51:35.153Z,99721
2019-04-25T08:52:35.417Z,99714
2019-04-25T08:53:35.601Z,99727
2019-04-25T08:54:35.736Z,99729
2019-04-25T08:55:36.092Z,99720
2019-04-25T08:56:35.456Z,99742
2019-04-25T08:57:35.178Z,99742
2019-04-25T08:58:35.621Z,99744
2019-04-25T08:59:40.570Z,99768
2019-04-25T09:00:36.028Z,99758
2019-04-25T09:01:37.791Z,99752
2019-04-25T09:02:36.403Z,99751
2019-04-25T09:03:35.684Z,99742
2019-04-25T09:04:35.959Z,99742
2019-04-25T09:05:36.281Z,99737
2019-04-25T09:06:36.302Z,99749
2019-04-25T09:07:36.911Z,99759
2019-04-25T09:08:37.170Z,99743
2019-04-25T09:09:36.891Z,99738
2019-04-25T09:10:37.326Z,99740
2019-04-25T09:11:37.837Z,99735
2019-04-25T09:12:36.832Z,99735
2019-04-25T09:13:37.346Z,99739
2019-04-25T09:14:36.761Z,99744
2019-04-25T09:15:36.927Z,99736
2019-04-25T09:16:36.958Z,99731
2019-04-25T09:17:37.073Z,99732
2019-04-25T09:18:37.287Z,99727
2019-04-25T09:19:37.408Z,99731
2019-04-25T09:20:39.533Z,99728
2019-04-25T09:21:36.838Z,99728
2019-04-25T09:22:37.683Z,99743
2019-04-25T09:23:36.788Z,99722
2019-04-25T09:24:37.934Z,99723
2019-04-25T09:25:37.674Z,99723
2019-04-25T09:26:37.180Z,99723
2019-04-25T09:27:39.561Z,99718
2019-04-25T09:28:39.400Z,99723
2019-04-25T09:29:38.023Z,99735
2019-04-25T09:30:37.380Z,99732
2019-04-25T09:31:39.118Z,99755
2019-04-25T09:32:38.979Z,99736
2019-04-25T09:33:38.249Z,99732
2019-04-25T09:34:45.103Z,99744
2019-04-25T09:35:38.706Z,99737
2019-04-25T09:36:39.034Z,99742
2019-04-25T09:37:37.830Z,99735
2019-04-25T09:38:37.985Z,99739
2019-04-25T09:39:38.122Z,99740
2019-04-25T09:40:38.630Z,99750
2019-04-25T09:41:39.040Z,99741
2019-04-25T09:42:38.435Z,99733
2019-04-25T09:43:39.445Z,99745
2019-04-25T09:44:38.370Z,99746
2019-04-25T09:45:38.616Z,99749
2019-04-25T09:46:38.634Z,99738
2019-04-25T09:47:38.348Z,99738
2019-04-25T09:48:39.352Z,99738
2019-04-25T09:49:40.745Z,99753
2019-04-25T09:50:40.609Z,99750
2019-04-25T09:51:38.779Z,99748
2019-04-25T09:52:39.295Z,99744
2019-04-25T09:53:43.670Z,99743
2019-04-25T09:54:38.990Z,99741
2019-04-25T09:55:38.725Z,99740
2019-04-25T09:56:39.604Z,99738
2019-04-25T09:57:40.193Z,99741
2019-04-25T09:58:39.143Z,99743
2019-04-25T09:59:40.984Z,99741
2019-04-25T10:00:39.472Z,99738
2019-04-25T10:01:39.144Z,99737
2019-04-25T10:02:39.356Z,99748
2019-04-25T10:03:40.016Z,99746
2019-04-25T10:04:40.391Z,99741
2019-04-25T10:05:39.526Z,99742
2019-04-25T10:06:39.812Z,99742
2019-04-25T10:07:39.743Z,99747
2019-04-25T10:08:40.229Z,99753
2019-04-25T10:09:45.165Z,99754
2019-04-25T10:10:41.596Z,99743
2019-04-25T10:11:40.840Z,99743
2019-04-25T10:12:39.981Z,99741
2019-04-25T10:13:40.999Z,99745
2019-04-25T10:14:40.035Z,99743
2019-04-25T10:15:41.583Z,99728
2019-04-25T10:16:41.441Z,99737
2019-04-25T10:17:40.248Z,99741
2019-04-25T10:18:40.392Z,99738
2019-04-25T10:19:40.296Z,99730
2019-04-25T10:20:42.222Z,99726
2019-04-25T10:21:41.015Z,99726
2019-04-25T10:22:41.434Z,99730
2019-04-25T10:23:40.790Z,99729
2019-04-25T10:24:41.840Z,99724
2019-04-25T10:25:41.105Z,99730
2019-04-25T10:26:40.734Z,99726
2019-04-25T10:27:41.920Z,99721
2019-04-25T10:28:44.000Z,99728
2019-04-25T10:29:47.987Z,99722
2019-04-25T10:30:42.019Z,99730
2019-04-25T10:31:48.329Z,99728
2019-04-25T10:32:45.340Z,99732
2019-04-25T10:33:45.781Z,99730
2019-04-25T10:34:45.040Z,99727
2019-04-25T10:35:52.919Z,99724
2019-04-25T10:36:44.341Z,99737
2019-04-25T10:37:42.305Z,99734
2019-04-25T10:38:44.819Z,99735
2019-04-25T10:39:44.994Z,99727
2019-04-25T10:40:41.638Z,99736
2019-04-25T10:41:41.875Z,99732
2019-04-25T10:42:41.558Z,99726
2019-04-25T10:43:42.931Z,99743
2019-04-25T10:44:44.696Z,99733
2019-04-25T10:45:44.697Z,99725
2019-04-25T10:46:43.036Z,99728
2019-04-25T10:47:45.725Z,99714
2019-04-25T10:48:42.941Z,99723
2019-04-25T10:49:44.919Z,99724
2019-04-25T10:50:42.566Z,99718
2019-04-25T10:51:44.628Z,99728
2019-04-25T10:52:44.454Z,99716
2019-04-25T10:53:45.907Z,99731
2019-04-25T10:54:44.242Z,99727
2019-04-25T10:55:44.565Z,99714
2019-04-25T10:56:44.483Z,99715
2019-04-25T10:57:47.456Z,99725
2019-04-25T10:58:44.360Z,99723
2019-04-25T10:59:55.131Z,99715
2019-04-25T11:00:44.800Z,99709
2019-04-25T11:01:45.007Z,99716
2019-04-25T11:02:45.452Z,99717
2019-04-25T11:03:44.486Z,99715
2019-04-25T11:04:44.187Z,99717
2019-04-25T11:05:44.279Z,99716
2019-04-25T11:06:46.207Z,99715
2019-04-25T11:07:43.571Z,99722
2019-04-25T11:08:44.007Z,99716
2019-04-25T11:09:47.085Z,99713
2019-04-25T11:10:44.171Z,99715
2019-04-25T11:11:44.919Z,99715
2019-04-25T11:12:44.493Z,99703
2019-04-25T11:13:45.654Z,99706
2019-04-25T11:14:43.388Z,99710
2019-04-25T11:15:48.839Z,99706
2019-04-25T11:16:47.407Z,99711
2019-04-25T11:17:47.120Z,99711
2019-04-25T11:18:45.289Z,99716
2019-04-25T11:19:45.908Z,99710
2019-04-25T11:20:49.202Z,99708
2019-04-25T11:21:45.587Z,99706
2019-04-25T11:22:45.035Z,99705
2019-04-25T11:23:44.920Z,99703
2019-04-25T11:24:44.882Z,99700
2019-04-25T11:25:45.225Z,99716
2019-04-25T11:26:47.056Z,99696
2019-04-25T11:27:47.287Z,99700
2019-04-25T11:28:50.081Z,99710
2019-04-25T11:29:46.199Z,99699
2019-04-25T11:30:51.427Z,99704
2019-04-25T11:31:47.785Z,99711
2019-04-25T11:32:49.200Z,99705
2019-04-25T11:34:09.694Z,99713
2019-04-25T11:34:53.750Z,99715
2019-04-25T11:35:48.048Z,99708
2019-04-25T11:36:47.572Z,99713
2019-04-25T11:37:51.691Z,99713
2019-04-25T11:38:46.494Z,99712
2019-04-25T11:39:46.405Z,99718
2019-04-25T11:40:48.036Z,99722
2019-04-25T11:41:47.266Z,99723
2019-04-25T11:42:46.197Z,99720
2019-04-25T11:43:47.795Z,99718
2019-04-25T11:44:51.471Z,99734
2019-04-25T11:45:48.303Z,99729
2019-04-25T11:46:57.890Z,99726
2019-04-25T11:47:47.422Z,99721
2019-04-25T11:48:47.278Z,99722
2019-04-25T11:49:46.729Z,99720
2019-04-25T11:50:48.828Z,99710
2019-04-25T11:51:47.282Z,99715
2019-04-25T11:52:51.690Z,99711
2019-04-25T11:53:47.483Z,99708
2019-04-25T11:54:47.161Z,99704
2019-04-25T11:55:48.003Z,99706
2019-04-25T11:56:46.247Z,99705
2019-04-25T11:57:49.018Z,99698
2019-04-25T11:58:46.727Z,99697
2019-04-25T11:59:48.200Z,99697
2019-04-25T12:00:46.224Z,99699
2019-04-25T12:01:46.602Z,99695
2019-04-25T12:02:46.672Z,99697
2019-04-25T12:03:47.844Z,99696
2019-04-25T12:04:46.721Z,99685
2019-04-25T12:05:46.994Z,99683
2019-04-25T12:06:52.266Z,99683
2019-04-25T12:07:47.035Z,99681
2019-04-25T12:08:48.191Z,99672
2019-04-25T12:09:47.055Z,99669
2019-04-25T12:10:46.978Z,99673
2019-04-25T12:11:47.126Z,99668
2019-04-25T12:12:54.612Z,99674
2019-04-25T12:13:47.118Z,99667
2019-04-25T12:14:46.659Z,99662
2019-04-25T12:15:48.863Z,99653
2019-04-25T12:16:49.038Z,99642
2019-04-25T12:17:48.633Z,99633
2019-04-25T12:18:49.037Z,99639
2019-04-25T12:19:50.280Z,99638
2019-04-25T12:20:47.831Z,99639
2019-04-25T12:21:47.291Z,99640
2019-04-25T12:22:47.358Z,99642
2019-04-25T12:23:47.696Z,99635
2019-04-25T12:24:46.988Z,99646
2019-04-25T12:25:48.871Z,99643
2019-04-25T12:26:47.673Z,99628
2019-04-25T12:27:50.299Z,99632
2019-04-25T12:28:48.419Z,99626
2019-04-25T12:29:51.434Z,99627
2019-04-25T12:30:48.381Z,99634
2019-04-25T12:31:48.310Z,99623
2019-04-25T12:32:48.996Z,99619
2019-04-25T12:33:49.021Z,99623
2019-04-25T12:34:48.570Z,99623
2019-04-25T12:35:51.010Z,99621
2019-04-25T12:36:51.387Z,99621
2019-04-25T12:37:50.856Z,99623
2019-04-25T12:38:50.188Z,99613
2019-04-25T12:39:50.013Z,99612
2019-04-25T12:40:49.120Z,99622
2019-04-25T12:41:49.288Z,99623
2019-04-25T12:42:48.835Z,99617
2019-04-25T12:43:49.054Z,99622
2019-04-25T12:44:49.980Z,99617
2019-04-25T12:45:48.355Z,99614
2019-04-25T12:46:49.477Z,99606
2019-04-25T12:47:49.808Z,99613
2019-04-25T12:48:48.570Z,99621
2019-04-25T12:49:49.696Z,99613
2019-04-25T12:50:49.064Z,99634
2019-04-25T12:51:48.891Z,99631
2019-04-25T12:52:49.598Z,99637
2019-04-25T12:53:50.428Z,99626
2019-04-25T12:54:50.104Z,99646
2019-04-25T12:55:50.728Z,99624
2019-04-25T12:56:50.956Z,99619
2019-04-25T12:57:50.478Z,99627
2019-04-25T12:58:53.763Z,99621